LPPS/PXO METAR and TAF weather

Enter ICAO airport designator
Station Type Date Time Source
LPPS METAR 2019/10/14 05:30 UTC NOAA

LPPS 140530Z 31009KT 9999 FEW015 18/11 Q1020


Station Type Date Time Source
LPPS Decoded METAR 2019/10/14 05:30 UTC NOAA

Porto Santo, Portugal (LPPS) 33-04N 016-21W 82M
Oct 14, 2019 - 01:30 AM EDT / 2019.10.14 0530 UTC
Wind: from the NW (310 degrees) at 10 MPH (9 KT):0
Visibility: greater than 7 mile(s):0
Sky conditions: mostly clear
Temperature: 64 F (18 C)
Dew Point: 51 F (11 C)
Relative Humidity: 63%
Pressure (altimeter): 30.12 in. Hg (1020 hPa)
ob: LPPS 140530Z 31009KT 9999 FEW015 18/11 Q1020
cycle: 5

Station Type Date Time Source
LPPS TAF 2019/10/14 06:18 UTC NOAA

TAF LPPS 140500Z 1406/1512 33010KT 9999 SCT015 PROB30
TEMPO 1416/1424 8000 SHRA BKN013
BECMG 1421/1424 VRB05KT

Example: see airport list